sensor_id;sensor_type;location;lat;lon;timestamp;P1;durP1;ratioP1;P2;durP2;ratioP2
61413;SDS011;47279;52.426;10.488;2023-07-30T00:01:48;1.10;;;0.90;;
61413;SDS011;47279;52.426;10.488;2023-07-30T00:04:14;1.67;;;0.90;;
61413;SDS011;47279;52.426;10.488;2023-07-30T00:06:40;1.42;;;0.90;;
61413;SDS011;47279;52.426;10.488;2023-07-30T00:09:06;1.17;;;1.02;;
61413;SDS011;47279;52.426;10.488;2023-07-30T00:11:32;1.15;;;1.05;;
61413;SDS011;47279;52.426;10.488;2023-07-30T00:13:58;1.00;;;0.95;;
61413;SDS011;47279;52.426;10.488;2023-07-30T00:16:25;1.25;;;0.95;;
61413;SDS011;47279;52.426;10.488;2023-07-30T00:18:51;1.10;;;1.00;;
61413;SDS011;47279;52.426;10.488;2023-07-30T00:21:17;1.08;;;0.95;;
61413;SDS011;47279;52.426;10.488;2023-07-30T00:23:43;1.30;;;1.00;;
61413;SDS011;47279;52.426;10.488;2023-07-30T00:26:09;1.17;;;1.08;;
61413;SDS011;47279;52.426;10.488;2023-07-30T00:28:35;1.00;;;0.98;;
61413;SDS011;47279;52.426;10.488;2023-07-30T00:31:01;0.98;;;0.88;;
61413;SDS011;47279;52.426;10.488;2023-07-30T00:33:26;1.08;;;0.98;;
61413;SDS011;47279;52.426;10.488;2023-07-30T00:35:52;1.17;;;1.00;;
61413;SDS011;47279;52.426;10.488;2023-07-30T00:38:19;1.00;;;0.90;;
61413;SDS011;47279;52.426;10.488;2023-07-30T00:40:45;1.00;;;0.95;;
61413;SDS011;47279;52.426;10.488;2023-07-30T00:43:11;1.05;;;0.95;;
61413;SDS011;47279;52.426;10.488;2023-07-30T00:45:38;0.90;;;0.90;;
61413;SDS011;47279;52.426;10.488;2023-07-30T00:48:04;1.00;;;0.95;;
61413;SDS011;47279;52.426;10.488;2023-07-30T00:50:30;1.08;;;0.80;;
61413;SDS011;47279;52.426;10.488;2023-07-30T00:52:56;0.70;;;0.70;;
61413;SDS011;47279;52.426;10.488;2023-07-30T00:55:22;1.00;;;0.90;;
61413;SDS011;47279;52.426;10.488;2023-07-30T00:57:49;1.25;;;0.93;;
61413;SDS011;47279;52.426;10.488;2023-07-30T01:00:15;0.80;;;0.80;;
61413;SDS011;47279;52.426;10.488;2023-07-30T01:02:41;1.20;;;1.10;;
61413;SDS011;47279;52.426;10.488;2023-07-30T01:05:07;1.27;;;1.17;;
61413;SDS011;47279;52.426;10.488;2023-07-30T01:07:33;0.90;;;0.90;;
61413;SDS011;47279;52.426;10.488;2023-07-30T01:09:59;0.88;;;0.80;;
61413;SDS011;47279;52.426;10.488;2023-07-30T01:12:26;1.08;;;0.98;;
61413;SDS011;47279;52.426;10.488;2023-07-30T01:14:52;1.10;;;1.00;;
61413;SDS011;47279;52.426;10.488;2023-07-30T01:17:19;1.08;;;0.98;;
61413;SDS011;47279;52.426;10.488;2023-07-30T01:19:45;1.10;;;0.95;;
61413;SDS011;47279;52.426;10.488;2023-07-30T01:22:12;1.35;;;1.00;;
61413;SDS011;47279;52.426;10.488;2023-07-30T01:24:38;0.80;;;0.80;;
61413;SDS011;47279;52.426;10.488;2023-07-30T01:27:05;0.90;;;0.90;;
61413;SDS011;47279;52.426;10.488;2023-07-30T01:31:59;1.20;;;1.00;;
61413;SDS011;47279;52.426;10.488;2023-07-30T01:34:27;1.20;;;1.00;;
61413;SDS011;47279;52.426;10.488;2023-07-30T01:36:53;0.88;;;0.82;;
61413;SDS011;47279;52.426;10.488;2023-07-30T01:39:20;1.25;;;1.05;;
61413;SDS011;47279;52.426;10.488;2023-07-30T01:41:46;1.10;;;1.00;;
61413;SDS011;47279;52.426;10.488;2023-07-30T01:44:12;0.85;;;0.82;;
61413;SDS011;47279;52.426;10.488;2023-07-30T01:46:38;1.30;;;0.95;;
61413;SDS011;47279;52.426;10.488;2023-07-30T01:49:04;1.13;;;1.02;;
61413;SDS011;47279;52.426;10.488;2023-07-30T01:51:30;1.15;;;1.05;;
61413;SDS011;47279;52.426;10.488;2023-07-30T01:53:55;0.88;;;0.88;;
61413;SDS011;47279;52.426;10.488;2023-07-30T01:56:21;0.90;;;0.90;;
61413;SDS011;47279;52.426;10.488;2023-07-30T01:58:47;0.75;;;0.75;;
61413;SDS011;47279;52.426;10.488;2023-07-30T02:01:13;0.95;;;0.80;;
61413;SDS011;47279;52.426;10.488;2023-07-30T02:03:39;0.73;;;0.73;;
61413;SDS011;47279;52.426;10.488;2023-07-30T02:06:05;1.00;;;0.90;;
61413;SDS011;47279;52.426;10.488;2023-07-30T02:08:31;1.02;;;0.93;;
61413;SDS011;47279;52.426;10.488;2023-07-30T02:10:58;1.38;;;0.90;;
61413;SDS011;47279;52.426;10.488;2023-07-30T02:13:24;0.80;;;0.80;;
61413;SDS011;47279;52.426;10.488;2023-07-30T02:15:50;0.80;;;0.80;;
61413;SDS011;47279;52.426;10.488;2023-07-30T02:18:16;1.00;;;0.82;;
61413;SDS011;47279;52.426;10.488;2023-07-30T02:20:42;1.00;;;0.90;;
61413;SDS011;47279;52.426;10.488;2023-07-30T02:23:08;1.35;;;1.00;;
61413;SDS011;47279;52.426;10.488;2023-07-30T02:25:34;0.90;;;0.90;;
61413;SDS011;47279;52.426;10.488;2023-07-30T02:28:00;0.95;;;0.90;;
61413;SDS011;47279;52.426;10.488;2023-07-30T02:30:27;1.10;;;1.00;;
61413;SDS011;47279;52.426;10.488;2023-07-30T02:32:53;0.98;;;0.90;;
61413;SDS011;47279;52.426;10.488;2023-07-30T02:35:19;1.00;;;0.90;;
61413;SDS011;47279;52.426;10.488;2023-07-30T02:37:45;1.48;;;1.10;;
61413;SDS011;47279;52.426;10.488;2023-07-30T02:40:11;1.10;;;1.00;;
61413;SDS011;47279;52.426;10.488;2023-07-30T02:42:37;0.88;;;0.88;;
61413;SDS011;47279;52.426;10.488;2023-07-30T02:45:03;1.00;;;0.90;;
61413;SDS011;47279;52.426;10.488;2023-07-30T02:47:30;1.00;;;0.90;;
61413;SDS011;47279;52.426;10.488;2023-07-30T02:49:56;0.80;;;0.80;;
61413;SDS011;47279;52.426;10.488;2023-07-30T02:52:22;1.08;;;0.90;;
61413;SDS011;47279;52.426;10.488;2023-07-30T02:54:48;1.20;;;1.05;;
61413;SDS011;47279;52.426;10.488;2023-07-30T02:57:14;1.17;;;1.08;;
61413;SDS011;47279;52.426;10.488;2023-07-30T02:59:39;0.93;;;0.93;;
61413;SDS011;47279;52.426;10.488;2023-07-30T03:02:06;1.02;;;1.00;;
61413;SDS011;47279;52.426;10.488;2023-07-30T03:04:32;0.80;;;0.80;;
61413;SDS011;47279;52.426;10.488;2023-07-30T03:06:58;0.95;;;0.90;;
61413;SDS011;47279;52.426;10.488;2023-07-30T03:09:24;1.10;;;0.82;;
61413;SDS011;47279;52.426;10.488;2023-07-30T03:11:50;1.17;;;0.98;;
61413;SDS011;47279;52.426;10.488;2023-07-30T03:14:16;1.00;;;0.90;;
61413;SDS011;47279;52.426;10.488;2023-07-30T03:16:46;1.65;;;0.95;;
61413;SDS011;47279;52.426;10.488;2023-07-30T03:19:12;0.80;;;0.80;;
61413;SDS011;47279;52.426;10.488;2023-07-30T03:21:38;0.70;;;0.70;;
61413;SDS011;47279;52.426;10.488;2023-07-30T03:24:04;0.77;;;0.77;;
61413;SDS011;47279;52.426;10.488;2023-07-30T03:26:30;2.00;;;1.00;;
61413;SDS011;47279;52.426;10.488;2023-07-30T03:28:56;0.98;;;0.98;;
61413;SDS011;47279;52.426;10.488;2023-07-30T03:31:22;0.90;;;0.90;;
61413;SDS011;47279;52.426;10.488;2023-07-30T03:33:48;1.20;;;1.10;;
61413;SDS011;47279;52.426;10.488;2023-07-30T03:36:14;0.75;;;0.75;;
61413;SDS011;47279;52.426;10.488;2023-07-30T03:38:40;1.10;;;1.00;;
61413;SDS011;47279;52.426;10.488;2023-07-30T03:41:06;0.80;;;0.80;;
61413;SDS011;47279;52.426;10.488;2023-07-30T03:43:33;0.93;;;0.90;;
61413;SDS011;47279;52.426;10.488;2023-07-30T03:45:59;1.35;;;0.90;;
61413;SDS011;47279;52.426;10.488;2023-07-30T03:48:25;1.00;;;0.90;;
61413;SDS011;47279;52.426;10.488;2023-07-30T03:50:51;0.70;;;0.70;;
61413;SDS011;47279;52.426;10.488;2023-07-30T03:53:17;1.00;;;1.00;;
61413;SDS011;47279;52.426;10.488;2023-07-30T03:55:43;1.05;;;1.00;;
61413;SDS011;47279;52.426;10.488;2023-07-30T03:58:09;1.05;;;0.95;;
61413;SDS011;47279;52.426;10.488;2023-07-30T04:00:35;1.08;;;0.98;;
61413;SDS011;47279;52.426;10.488;2023-07-30T04:03:01;0.95;;;0.90;;
61413;SDS011;47279;52.426;10.488;2023-07-30T04:05:27;0.75;;;0.75;;
61413;SDS011;47279;52.426;10.488;2023-07-30T04:07:53;0.93;;;0.90;;
61413;SDS011;47279;52.426;10.488;2023-07-30T04:13:22;0.85;;;0.85;;
61413;SDS011;47279;52.426;10.488;2023-07-30T04:15:48;0.90;;;0.90;;
61413;SDS011;47279;52.426;10.488;2023-07-30T04:18:14;1.10;;;1.00;;
61413;SDS011;47279;52.426;10.488;2023-07-30T04:20:40;0.80;;;0.80;;
61413;SDS011;47279;52.426;10.488;2023-07-30T04:23:06;1.08;;;0.98;;
61413;SDS011;47279;52.426;10.488;2023-07-30T04:25:32;1.00;;;1.00;;
61413;SDS011;47279;52.426;10.488;2023-07-30T04:27:58;0.80;;;0.80;;
61413;SDS011;47279;52.426;10.488;2023-07-30T04:30:24;0.93;;;0.93;;
61413;SDS011;47279;52.426;10.488;2023-07-30T04:32:50;1.05;;;1.00;;
61413;SDS011;47279;52.426;10.488;2023-07-30T04:35:16;1.05;;;0.80;;
61413;SDS011;47279;52.426;10.488;2023-07-30T04:37:42;1.10;;;1.00;;
61413;SDS011;47279;52.426;10.488;2023-07-30T04:40:08;0.85;;;0.80;;
61413;SDS011;47279;52.426;10.488;2023-07-30T04:42:34;1.10;;;1.00;;
61413;SDS011;47279;52.426;10.488;2023-07-30T04:45:00;0.85;;;0.85;;
61413;SDS011;47279;52.426;10.488;2023-07-30T04:47:26;0.80;;;0.80;;
61413;SDS011;47279;52.426;10.488;2023-07-30T04:49:52;0.80;;;0.80;;
61413;SDS011;47279;52.426;10.488;2023-07-30T04:52:18;0.82;;;0.80;;
61413;SDS011;47279;52.426;10.488;2023-07-30T04:54:44;0.80;;;0.80;;
61413;SDS011;47279;52.426;10.488;2023-07-30T04:57:11;1.45;;;0.90;;
61413;SDS011;47279;52.426;10.488;2023-07-30T04:59:37;0.80;;;0.80;;
61413;SDS011;47279;52.426;10.488;2023-07-30T05:02:03;0.80;;;0.80;;
61413;SDS011;47279;52.426;10.488;2023-07-30T05:04:29;0.82;;;0.82;;
61413;SDS011;47279;52.426;10.488;2023-07-30T05:06:55;1.00;;;0.90;;
61413;SDS011;47279;52.426;10.488;2023-07-30T05:09:20;1.02;;;0.90;;
61413;SDS011;47279;52.426;10.488;2023-07-30T05:11:46;1.77;;;0.90;;
61413;SDS011;47279;52.426;10.488;2023-07-30T05:14:12;0.70;;;0.70;;
61413;SDS011;47279;52.426;10.488;2023-07-30T05:16:38;0.80;;;0.80;;
61413;SDS011;47279;52.426;10.488;2023-07-30T05:19:04;1.23;;;0.98;;
61413;SDS011;47279;52.426;10.488;2023-07-30T05:21:30;1.10;;;0.90;;
61413;SDS011;47279;52.426;10.488;2023-07-30T05:23:56;1.35;;;1.00;;
61413;SDS011;47279;52.426;10.488;2023-07-30T05:26:22;0.95;;;0.82;;
61413;SDS011;47279;52.426;10.488;2023-07-30T05:28:48;1.10;;;0.85;;
61413;SDS011;47279;52.426;10.488;2023-07-30T05:31:14;1.10;;;1.00;;
61413;SDS011;47279;52.426;10.488;2023-07-30T05:33:40;1.35;;;0.80;;
61413;SDS011;47279;52.426;10.488;2023-07-30T05:36:06;1.40;;;0.93;;
61413;SDS011;47279;52.426;10.488;2023-07-30T05:38:32;1.10;;;1.00;;
61413;SDS011;47279;52.426;10.488;2023-07-30T05:40:58;1.30;;;1.10;;
61413;SDS011;47279;52.426;10.488;2023-07-30T05:43:24;1.08;;;0.98;;
61413;SDS011;47279;52.426;10.488;2023-07-30T05:45:50;1.02;;;0.90;;
61413;SDS011;47279;52.426;10.488;2023-07-30T05:48:16;0.85;;;0.85;;
61413;SDS011;47279;52.426;10.488;2023-07-30T05:50:42;0.80;;;0.80;;
61413;SDS011;47279;52.426;10.488;2023-07-30T05:53:08;0.82;;;0.82;;
61413;SDS011;47279;52.426;10.488;2023-07-30T05:55:34;1.05;;;0.95;;
61413;SDS011;47279;52.426;10.488;2023-07-30T05:58:00;1.20;;;0.90;;
61413;SDS011;47279;52.426;10.488;2023-07-30T06:00:26;1.70;;;0.90;;
61413;SDS011;47279;52.426;10.488;2023-07-30T06:02:52;2.25;;;0.90;;
61413;SDS011;47279;52.426;10.488;2023-07-30T06:05:18;1.50;;;0.88;;
61413;SDS011;47279;52.426;10.488;2023-07-30T06:07:44;2.90;;;1.10;;
61413;SDS011;47279;52.426;10.488;2023-07-30T06:10:10;2.00;;;0.88;;
61413;SDS011;47279;52.426;10.488;2023-07-30T06:12:36;1.05;;;0.95;;
61413;SDS011;47279;52.426;10.488;2023-07-30T06:15:02;1.27;;;0.82;;
61413;SDS011;47279;52.426;10.488;2023-07-30T06:17:28;1.25;;;1.05;;
61413;SDS011;47279;52.426;10.488;2023-07-30T06:19:54;0.93;;;0.90;;
61413;SDS011;47279;52.426;10.488;2023-07-30T06:22:20;1.83;;;0.90;;
61413;SDS011;47279;52.426;10.488;2023-07-30T06:24:46;1.42;;;0.90;;
61413;SDS011;47279;52.426;10.488;2023-07-30T06:27:12;0.70;;;0.70;;
61413;SDS011;47279;52.426;10.488;2023-07-30T06:29:38;0.80;;;0.80;;
61413;SDS011;47279;52.426;10.488;2023-07-30T06:32:04;3.08;;;1.00;;
61413;SDS011;47279;52.426;10.488;2023-07-30T06:34:31;1.27;;;0.90;;
61413;SDS011;47279;52.426;10.488;2023-07-30T06:36:57;1.10;;;1.00;;
61413;SDS011;47279;52.426;10.488;2023-07-30T06:39:23;1.38;;;0.93;;
61413;SDS011;47279;52.426;10.488;2023-07-30T06:41:48;1.45;;;1.00;;
61413;SDS011;47279;52.426;10.488;2023-07-30T06:44:14;0.95;;;0.88;;
61413;SDS011;47279;52.426;10.488;2023-07-30T06:46:41;1.40;;;0.80;;
61413;SDS011;47279;52.426;10.488;2023-07-30T06:49:07;1.20;;;1.10;;
61413;SDS011;47279;52.426;10.488;2023-07-30T06:51:33;1.10;;;1.00;;
61413;SDS011;47279;52.426;10.488;2023-07-30T06:53:59;1.15;;;0.90;;
61413;SDS011;47279;52.426;10.488;2023-07-30T06:56:24;1.00;;;0.90;;
61413;SDS011;47279;52.426;10.488;2023-07-30T06:58:50;0.93;;;0.82;;
61413;SDS011;47279;52.426;10.488;2023-07-30T07:01:16;0.93;;;0.93;;
61413;SDS011;47279;52.426;10.488;2023-07-30T07:03:42;1.17;;;1.08;;
61413;SDS011;47279;52.426;10.488;2023-07-30T07:06:08;1.40;;;0.98;;
61413;SDS011;47279;52.426;10.488;2023-07-30T07:08:35;1.30;;;1.20;;
61413;SDS011;47279;52.426;10.488;2023-07-30T07:11:00;1.02;;;1.00;;
61413;SDS011;47279;52.426;10.488;2023-07-30T07:13:26;1.23;;;1.13;;
61413;SDS011;47279;52.426;10.488;2023-07-30T07:15:52;1.80;;;1.20;;
61413;SDS011;47279;52.426;10.488;2023-07-30T07:18:18;1.10;;;1.00;;
61413;SDS011;47279;52.426;10.488;2023-07-30T07:20:45;1.48;;;1.15;;
61413;SDS011;47279;52.426;10.488;2023-07-30T07:23:10;1.75;;;0.90;;
61413;SDS011;47279;52.426;10.488;2023-07-30T07:25:36;1.30;;;1.20;;
61413;SDS011;47279;52.426;10.488;2023-07-30T07:28:02;1.30;;;1.10;;
61413;SDS011;47279;52.426;10.488;2023-07-30T07:30:28;1.42;;;1.00;;
61413;SDS011;47279;52.426;10.488;2023-07-30T07:32:54;1.20;;;1.10;;
61413;SDS011;47279;52.426;10.488;2023-07-30T07:35:20;1.30;;;1.20;;
61413;SDS011;47279;52.426;10.488;2023-07-30T07:37:47;1.33;;;1.23;;
61413;SDS011;47279;52.426;10.488;2023-07-30T07:40:13;1.10;;;0.90;;
61413;SDS011;47279;52.426;10.488;2023-07-30T07:42:39;1.38;;;1.23;;
61413;SDS011;47279;52.426;10.488;2023-07-30T07:45:05;1.27;;;0.93;;
61413;SDS011;47279;52.426;10.488;2023-07-30T07:47:32;1.40;;;1.13;;
61413;SDS011;47279;52.426;10.488;2023-07-30T07:49:58;1.30;;;1.10;;
61413;SDS011;47279;52.426;10.488;2023-07-30T07:52:23;1.23;;;1.00;;
61413;SDS011;47279;52.426;10.488;2023-07-30T07:54:50;1.42;;;1.15;;
61413;SDS011;47279;52.426;10.488;2023-07-30T07:57:16;1.38;;;1.27;;
61413;SDS011;47279;52.426;10.488;2023-07-30T07:59:42;2.15;;;1.27;;
61413;SDS011;47279;52.426;10.488;2023-07-30T08:02:10;1.40;;;1.23;;
61413;SDS011;47279;52.426;10.488;2023-07-30T08:04:36;1.45;;;1.20;;
61413;SDS011;47279;52.426;10.488;2023-07-30T08:07:02;1.20;;;1.10;;
61413;SDS011;47279;52.426;10.488;2023-07-30T08:09:29;1.13;;;1.02;;
61413;SDS011;47279;52.426;10.488;2023-07-30T08:11:55;1.92;;;1.20;;
61413;SDS011;47279;52.426;10.488;2023-07-30T08:14:21;1.60;;;1.10;;
61413;SDS011;47279;52.426;10.488;2023-07-30T08:16:46;3.55;;;1.48;;
61413;SDS011;47279;52.426;10.488;2023-07-30T08:19:12;1.30;;;1.20;;
61413;SDS011;47279;52.426;10.488;2023-07-30T08:21:38;1.45;;;1.35;;
61413;SDS011;47279;52.426;10.488;2023-07-30T08:24:04;1.95;;;1.27;;
61413;SDS011;47279;52.426;10.488;2023-07-30T08:26:31;1.63;;;1.20;;
61413;SDS011;47279;52.426;10.488;2023-07-30T08:28:57;1.33;;;1.10;;
61413;SDS011;47279;52.426;10.488;2023-07-30T08:31:23;1.45;;;1.10;;
61413;SDS011;47279;52.426;10.488;2023-07-30T08:33:49;1.10;;;1.00;;
61413;SDS011;47279;52.426;10.488;2023-07-30T08:36:15;1.30;;;1.20;;
61413;SDS011;47279;52.426;10.488;2023-07-30T08:38:41;1.20;;;1.10;;
61413;SDS011;47279;52.426;10.488;2023-07-30T08:41:07;1.30;;;1.20;;
61413;SDS011;47279;52.426;10.488;2023-07-30T08:43:34;1.30;;;1.20;;
61413;SDS011;47279;52.426;10.488;2023-07-30T08:46:00;1.70;;;1.25;;
61413;SDS011;47279;52.426;10.488;2023-07-30T08:48:26;1.65;;;1.15;;
61413;SDS011;47279;52.426;10.488;2023-07-30T08:50:52;1.20;;;1.10;;
61413;SDS011;47279;52.426;10.488;2023-07-30T08:53:21;1.27;;;1.17;;
61413;SDS011;47279;52.426;10.488;2023-07-30T08:55:48;1.33;;;1.20;;
61413;SDS011;47279;52.426;10.488;2023-07-30T08:58:14;1.13;;;1.02;;
61413;SDS011;47279;52.426;10.488;2023-07-30T09:00:42;1.30;;;1.20;;
61413;SDS011;47279;52.426;10.488;2023-07-30T09:03:08;1.67;;;1.20;;
61413;SDS011;47279;52.426;10.488;2023-07-30T09:05:34;1.30;;;1.20;;
61413;SDS011;47279;52.426;10.488;2023-07-30T09:08:00;1.67;;;1.25;;
61413;SDS011;47279;52.426;10.488;2023-07-30T09:10:26;1.75;;;1.30;;
61413;SDS011;47279;52.426;10.488;2023-07-30T09:12:56;1.40;;;1.30;;
61413;SDS011;47279;52.426;10.488;2023-07-30T09:15:29;1.38;;;1.20;;
61413;SDS011;47279;52.426;10.488;2023-07-30T09:17:56;1.20;;;1.10;;
61413;SDS011;47279;52.426;10.488;2023-07-30T09:20:22;1.63;;;1.35;;
61413;SDS011;47279;52.426;10.488;2023-07-30T09:22:48;1.10;;;1.00;;
61413;SDS011;47279;52.426;10.488;2023-07-30T09:25:17;1.30;;;1.20;;
61413;SDS011;47279;52.426;10.488;2023-07-30T09:27:47;1.88;;;1.45;;
61413;SDS011;47279;52.426;10.488;2023-07-30T09:30:14;1.50;;;1.23;;
61413;SDS011;47279;52.426;10.488;2023-07-30T09:32:40;1.30;;;1.20;;
61413;SDS011;47279;52.426;10.488;2023-07-30T09:37:33;1.30;;;1.20;;
61413;SDS011;47279;52.426;10.488;2023-07-30T09:40:02;1.35;;;1.10;;
61413;SDS011;47279;52.426;10.488;2023-07-30T09:42:28;1.23;;;1.13;;
61413;SDS011;47279;52.426;10.488;2023-07-30T09:44:54;1.50;;;1.25;;
61413;SDS011;47279;52.426;10.488;2023-07-30T09:47:25;1.27;;;1.13;;
61413;SDS011;47279;52.426;10.488;2023-07-30T09:49:51;1.30;;;1.20;;
61413;SDS011;47279;52.426;10.488;2023-07-30T09:52:17;1.33;;;1.20;;
61413;SDS011;47279;52.426;10.488;2023-07-30T09:54:43;1.15;;;1.02;;
61413;SDS011;47279;52.426;10.488;2023-07-30T09:57:09;1.17;;;1.08;;
61413;SDS011;47279;52.426;10.488;2023-07-30T09:59:35;1.38;;;1.27;;
61413;SDS011;47279;52.426;10.488;2023-07-30T10:02:03;1.40;;;1.30;;
61413;SDS011;47279;52.426;10.488;2023-07-30T10:04:29;1.60;;;1.20;;
61413;SDS011;47279;52.426;10.488;2023-07-30T10:07:06;1.30;;;1.20;;
61413;SDS011;47279;52.426;10.488;2023-07-30T10:09:35;1.30;;;1.20;;
61413;SDS011;47279;52.426;10.488;2023-07-30T10:12:03;1.85;;;1.50;;
61413;SDS011;47279;52.426;10.488;2023-07-30T10:14:30;1.13;;;1.02;;
61413;SDS011;47279;52.426;10.488;2023-07-30T10:16:58;1.83;;;1.25;;
61413;SDS011;47279;52.426;10.488;2023-07-30T10:19:25;1.20;;;1.10;;
61413;SDS011;47279;52.426;10.488;2023-07-30T10:21:53;1.15;;;0.95;;
61413;SDS011;47279;52.426;10.488;2023-07-30T10:24:19;1.45;;;1.30;;
61413;SDS011;47279;52.426;10.488;2023-07-30T10:26:45;1.13;;;1.00;;
61413;SDS011;47279;52.426;10.488;2023-07-30T10:31:41;1.30;;;1.20;;
61413;SDS011;47279;52.426;10.488;2023-07-30T10:34:08;1.35;;;1.25;;
61413;SDS011;47279;52.426;10.488;2023-07-30T10:36:41;1.15;;;1.05;;
61413;SDS011;47279;52.426;10.488;2023-07-30T10:39:11;1.13;;;1.02;;
61413;SDS011;47279;52.426;10.488;2023-07-30T10:41:37;1.20;;;1.10;;
61413;SDS011;47279;52.426;10.488;2023-07-30T10:44:03;1.52;;;1.30;;
61413;SDS011;47279;52.426;10.488;2023-07-30T10:46:29;1.38;;;1.27;;
61413;SDS011;47279;52.426;10.488;2023-07-30T10:48:55;0.98;;;0.90;;
61413;SDS011;47279;52.426;10.488;2023-07-30T10:51:21;1.02;;;1.02;;
61413;SDS011;47279;52.426;10.488;2023-07-30T10:53:49;1.17;;;1.08;;
61413;SDS011;47279;52.426;10.488;2023-07-30T10:56:15;1.15;;;1.08;;
61413;SDS011;47279;52.426;10.488;2023-07-30T10:58:42;1.45;;;1.20;;
61413;SDS011;47279;52.426;10.488;2023-07-30T11:01:08;1.30;;;1.20;;
61413;SDS011;47279;52.426;10.488;2023-07-30T11:03:35;1.48;;;1.20;;
61413;SDS011;47279;52.426;10.488;2023-07-30T11:06:03;1.20;;;1.10;;
61413;SDS011;47279;52.426;10.488;2023-07-30T11:08:32;1.40;;;1.23;;
61413;SDS011;47279;52.426;10.488;2023-07-30T11:10:58;1.60;;;1.48;;
61413;SDS011;47279;52.426;10.488;2023-07-30T11:13:25;1.17;;;1.08;;
61413;SDS011;47279;52.426;10.488;2023-07-30T11:15:51;1.85;;;1.20;;
61413;SDS011;47279;52.426;10.488;2023-07-30T11:18:17;1.50;;;1.40;;
61413;SDS011;47279;52.426;10.488;2023-07-30T11:20:43;1.33;;;1.20;;
61413;SDS011;47279;52.426;10.488;2023-07-30T11:23:22;2.05;;;1.30;;
61413;SDS011;47279;52.426;10.488;2023-07-30T11:25:51;1.52;;;1.25;;
61413;SDS011;47279;52.426;10.488;2023-07-30T11:28:33;2.03;;;1.25;;
61413;SDS011;47279;52.426;10.488;2023-07-30T11:31:00;1.40;;;1.23;;
61413;SDS011;47279;52.426;10.488;2023-07-30T11:33:27;1.25;;;1.15;;
61413;SDS011;47279;52.426;10.488;2023-07-30T11:35:54;1.35;;;1.25;;
61413;SDS011;47279;52.426;10.488;2023-07-30T11:38:21;1.50;;;1.20;;
61413;SDS011;47279;52.426;10.488;2023-07-30T11:40:47;1.50;;;1.40;;
61413;SDS011;47279;52.426;10.488;2023-07-30T11:43:13;1.38;;;1.27;;
61413;SDS011;47279;52.426;10.488;2023-07-30T11:45:39;1.30;;;1.20;;
61413;SDS011;47279;52.426;10.488;2023-07-30T11:48:06;1.23;;;1.13;;
61413;SDS011;47279;52.426;10.488;2023-07-30T11:53:01;1.33;;;1.20;;
61413;SDS011;47279;52.426;10.488;2023-07-30T11:55:36;1.35;;;1.20;;
61413;SDS011;47279;52.426;10.488;2023-07-30T11:58:02;1.63;;;1.20;;
61413;SDS011;47279;52.426;10.488;2023-07-30T12:00:28;1.40;;;1.30;;
61413;SDS011;47279;52.426;10.488;2023-07-30T12:02:56;1.65;;;1.30;;
61413;SDS011;47279;52.426;10.488;2023-07-30T12:05:31;1.35;;;1.23;;
61413;SDS011;47279;52.426;10.488;2023-07-30T12:07:58;1.40;;;1.30;;
61413;SDS011;47279;52.426;10.488;2023-07-30T12:10:27;1.40;;;1.30;;
61413;SDS011;47279;52.426;10.488;2023-07-30T12:12:53;1.88;;;1.77;;
61413;SDS011;47279;52.426;10.488;2023-07-30T12:15:19;1.40;;;1.27;;
61413;SDS011;47279;52.426;10.488;2023-07-30T12:17:47;1.95;;;1.42;;
61413;SDS011;47279;52.426;10.488;2023-07-30T12:20:13;1.50;;;1.20;;
61413;SDS011;47279;52.426;10.488;2023-07-30T12:22:39;1.48;;;1.30;;
61413;SDS011;47279;52.426;10.488;2023-07-30T12:25:07;1.70;;;1.55;;
61413;SDS011;47279;52.426;10.488;2023-07-30T12:27:35;1.35;;;1.25;;
61413;SDS011;47279;52.426;10.488;2023-07-30T12:30:01;1.65;;;1.38;;
61413;SDS011;47279;52.426;10.488;2023-07-30T12:32:26;1.90;;;1.40;;
61413;SDS011;47279;52.426;10.488;2023-07-30T12:34:54;1.88;;;1.45;;
61413;SDS011;47279;52.426;10.488;2023-07-30T12:37:20;1.50;;;1.40;;
61413;SDS011;47279;52.426;10.488;2023-07-30T12:39:46;1.50;;;1.40;;
61413;SDS011;47279;52.426;10.488;2023-07-30T12:42:12;1.52;;;1.42;;
61413;SDS011;47279;52.426;10.488;2023-07-30T12:44:38;1.70;;;1.60;;
61413;SDS011;47279;52.426;10.488;2023-07-30T12:47:04;1.70;;;1.60;;
61413;SDS011;47279;52.426;10.488;2023-07-30T12:49:30;1.60;;;1.50;;
61413;SDS011;47279;52.426;10.488;2023-07-30T12:51:56;1.70;;;1.60;;
61413;SDS011;47279;52.426;10.488;2023-07-30T12:54:22;1.70;;;1.58;;
61413;SDS011;47279;52.426;10.488;2023-07-30T12:56:48;1.92;;;1.40;;
61413;SDS011;47279;52.426;10.488;2023-07-30T12:59:14;2.05;;;1.50;;
61413;SDS011;47279;52.426;10.488;2023-07-30T13:01:40;1.70;;;1.60;;
61413;SDS011;47279;52.426;10.488;2023-07-30T13:04:06;1.63;;;1.50;;
61413;SDS011;47279;52.426;10.488;2023-07-30T13:06:32;1.90;;;1.70;;
61413;SDS011;47279;52.426;10.488;2023-07-30T13:08:58;1.70;;;1.50;;
61413;SDS011;47279;52.426;10.488;2023-07-30T13:11:24;2.17;;;1.75;;
61413;SDS011;47279;52.426;10.488;2023-07-30T13:13:50;2.35;;;2.08;;
61413;SDS011;47279;52.426;10.488;2023-07-30T13:16:15;2.20;;;2.00;;
61413;SDS011;47279;52.426;10.488;2023-07-30T13:18:41;2.28;;;2.08;;
61413;SDS011;47279;52.426;10.488;2023-07-30T13:21:07;1.70;;;1.60;;
61413;SDS011;47279;52.426;10.488;2023-07-30T13:23:33;2.05;;;1.67;;
61413;SDS011;47279;52.426;10.488;2023-07-30T13:25:59;1.70;;;1.60;;
61413;SDS011;47279;52.426;10.488;2023-07-30T13:28:26;1.73;;;1.63;;
61413;SDS011;47279;52.426;10.488;2023-07-30T13:30:52;1.48;;;1.38;;
61413;SDS011;47279;52.426;10.488;2023-07-30T13:33:18;1.70;;;1.60;;
61413;SDS011;47279;52.426;10.488;2023-07-30T13:35:44;1.50;;;1.40;;
61413;SDS011;47279;52.426;10.488;2023-07-30T13:38:10;2.47;;;1.85;;
61413;SDS011;47279;52.426;10.488;2023-07-30T13:40:36;1.70;;;1.60;;
61413;SDS011;47279;52.426;10.488;2023-07-30T13:43:02;1.88;;;1.70;;
61413;SDS011;47279;52.426;10.488;2023-07-30T13:45:28;1.70;;;1.60;;
61413;SDS011;47279;52.426;10.488;2023-07-30T13:47:54;1.90;;;1.60;;
61413;SDS011;47279;52.426;10.488;2023-07-30T13:50:19;1.98;;;1.77;;
61413;SDS011;47279;52.426;10.488;2023-07-30T13:52:45;1.83;;;1.60;;
61413;SDS011;47279;52.426;10.488;2023-07-30T13:55:12;1.63;;;1.52;;
61413;SDS011;47279;52.426;10.488;2023-07-30T13:57:38;1.60;;;1.50;;
61413;SDS011;47279;52.426;10.488;2023-07-30T14:00:04;1.40;;;1.30;;
61413;SDS011;47279;52.426;10.488;2023-07-30T14:02:31;1.90;;;1.80;;
61413;SDS011;47279;52.426;10.488;2023-07-30T14:04:57;2.70;;;2.00;;
61413;SDS011;47279;52.426;10.488;2023-07-30T14:07:23;1.83;;;1.70;;
61413;SDS011;47279;52.426;10.488;2023-07-30T14:09:49;2.35;;;2.13;;
61413;SDS011;47279;52.426;10.488;2023-07-30T14:12:15;2.22;;;1.80;;
61413;SDS011;47279;52.426;10.488;2023-07-30T14:14:41;2.40;;;2.03;;
61413;SDS011;47279;52.426;10.488;2023-07-30T14:17:07;1.73;;;1.63;;
61413;SDS011;47279;52.426;10.488;2023-07-30T14:19:33;2.13;;;1.63;;
61413;SDS011;47279;52.426;10.488;2023-07-30T14:21:59;1.88;;;1.67;;
61413;SDS011;47279;52.426;10.488;2023-07-30T14:24:25;1.63;;;1.52;;
61413;SDS011;47279;52.426;10.488;2023-07-30T14:26:51;1.65;;;1.48;;
61413;SDS011;47279;52.426;10.488;2023-07-30T14:29:17;1.63;;;1.52;;
61413;SDS011;47279;52.426;10.488;2023-07-30T14:31:43;2.10;;;1.80;;
61413;SDS011;47279;52.426;10.488;2023-07-30T14:34:09;1.70;;;1.60;;
61413;SDS011;47279;52.426;10.488;2023-07-30T14:36:35;2.08;;;1.80;;
61413;SDS011;47279;52.426;10.488;2023-07-30T14:39:01;1.70;;;1.60;;
61413;SDS011;47279;52.426;10.488;2023-07-30T14:41:27;2.75;;;1.70;;